sensor_id;sensor_type;location;lat;lon;timestamp;P1;durP1;ratioP1;P2;durP2;ratioP2
29238;SDS011;16267;48.194;11.546;2024-03-02T00:00:43;8.25;;;4.45;;
29238;SDS011;16267;48.194;11.546;2024-03-02T00:03:09;7.47;;;4.30;;
29238;SDS011;16267;48.194;11.546;2024-03-02T00:05:34;7.88;;;4.45;;
29238;SDS011;16267;48.194;11.546;2024-03-02T00:08:00;7.18;;;3.90;;
29238;SDS011;16267;48.194;11.546;2024-03-02T00:10:39;6.35;;;4.05;;
29238;SDS011;16267;48.194;11.546;2024-03-02T00:13:05;8.30;;;4.55;;
29238;SDS011;16267;48.194;11.546;2024-03-02T00:15:48;11.38;;;3.92;;
29238;SDS011;16267;48.194;11.546;2024-03-02T00:18:20;9.48;;;4.40;;
29238;SDS011;16267;48.194;11.546;2024-03-02T00:20:56;9.88;;;4.18;;
29238;SDS011;16267;48.194;11.546;2024-03-02T00:23:23;7.43;;;4.97;;
29238;SDS011;16267;48.194;11.546;2024-03-02T00:25:52;8.93;;;4.78;;
29238;SDS011;16267;48.194;11.546;2024-03-02T00:28:21;9.70;;;4.90;;
29238;SDS011;16267;48.194;11.546;2024-03-02T00:31:04;9.57;;;4.35;;
29238;SDS011;16267;48.194;11.546;2024-03-02T00:33:34;8.32;;;4.75;;
29238;SDS011;16267;48.194;11.546;2024-03-02T00:36:05;9.27;;;4.32;;
29238;SDS011;16267;48.194;11.546;2024-03-02T00:38:33;7.65;;;4.22;;
29238;SDS011;16267;48.194;11.546;2024-03-02T00:41:02;8.98;;;5.13;;
29238;SDS011;16267;48.194;11.546;2024-03-02T00:46:20;10.95;;;5.20;;
29238;SDS011;16267;48.194;11.546;2024-03-02T00:48:56;10.35;;;5.38;;
29238;SDS011;16267;48.194;11.546;2024-03-02T00:51:24;8.93;;;4.65;;
29238;SDS011;16267;48.194;11.546;2024-03-02T00:53:53;7.50;;;4.63;;
29238;SDS011;16267;48.194;11.546;2024-03-02T00:56:21;13.45;;;5.22;;
29238;SDS011;16267;48.194;11.546;2024-03-02T00:58:49;9.23;;;5.18;;
29238;SDS011;16267;48.194;11.546;2024-03-02T01:01:15;9.68;;;5.10;;
29238;SDS011;16267;48.194;11.546;2024-03-02T01:03:42;8.80;;;5.38;;
29238;SDS011;16267;48.194;11.546;2024-03-02T01:06:08;11.32;;;5.68;;
29238;SDS011;16267;48.194;11.546;2024-03-02T01:08:34;10.45;;;5.03;;
29238;SDS011;16267;48.194;11.546;2024-03-02T01:11:01;9.85;;;4.53;;
29238;SDS011;16267;48.194;11.546;2024-03-02T01:13:27;11.57;;;5.15;;
29238;SDS011;16267;48.194;11.546;2024-03-02T01:15:53;9.63;;;5.22;;
29238;SDS011;16267;48.194;11.546;2024-03-02T01:18:19;10.77;;;4.97;;
29238;SDS011;16267;48.194;11.546;2024-03-02T01:20:44;9.38;;;4.93;;
29238;SDS011;16267;48.194;11.546;2024-03-02T01:23:10;10.15;;;5.80;;
29238;SDS011;16267;48.194;11.546;2024-03-02T01:25:36;9.98;;;5.15;;
29238;SDS011;16267;48.194;11.546;2024-03-02T01:28:02;9.82;;;5.38;;
29238;SDS011;16267;48.194;11.546;2024-03-02T01:30:29;9.43;;;4.95;;
29238;SDS011;16267;48.194;11.546;2024-03-02T01:32:55;11.32;;;5.20;;
29238;SDS011;16267;48.194;11.546;2024-03-02T01:35:20;10.38;;;5.47;;
29238;SDS011;16267;48.194;11.546;2024-03-02T01:37:46;11.48;;;5.53;;
29238;SDS011;16267;48.194;11.546;2024-03-02T01:40:12;8.65;;;4.20;;
29238;SDS011;16267;48.194;11.546;2024-03-02T01:42:38;9.48;;;4.97;;
29238;SDS011;16267;48.194;11.546;2024-03-02T01:45:05;7.78;;;4.85;;
29238;SDS011;16267;48.194;11.546;2024-03-02T01:47:32;10.15;;;5.07;;
29238;SDS011;16267;48.194;11.546;2024-03-02T01:49:58;13.52;;;5.28;;
29238;SDS011;16267;48.194;11.546;2024-03-02T01:52:25;8.18;;;4.60;;
29238;SDS011;16267;48.194;11.546;2024-03-02T01:54:51;9.63;;;5.35;;
29238;SDS011;16267;48.194;11.546;2024-03-02T01:57:17;11.43;;;5.32;;
29238;SDS011;16267;48.194;11.546;2024-03-02T01:59:43;7.78;;;4.43;;
29238;SDS011;16267;48.194;11.546;2024-03-02T02:02:10;10.20;;;4.80;;
29238;SDS011;16267;48.194;11.546;2024-03-02T02:04:35;9.60;;;5.03;;
29238;SDS011;16267;48.194;11.546;2024-03-02T02:07:01;9.25;;;4.72;;
29238;SDS011;16267;48.194;11.546;2024-03-02T02:09:27;10.30;;;4.50;;
29238;SDS011;16267;48.194;11.546;2024-03-02T02:11:53;9.57;;;4.72;;
29238;SDS011;16267;48.194;11.546;2024-03-02T02:14:18;8.07;;;4.50;;
29238;SDS011;16267;48.194;11.546;2024-03-02T02:16:44;7.82;;;4.82;;
29238;SDS011;16267;48.194;11.546;2024-03-02T02:19:10;8.23;;;5.00;;
29238;SDS011;16267;48.194;11.546;2024-03-02T02:21:36;9.98;;;4.78;;
29238;SDS011;16267;48.194;11.546;2024-03-02T02:24:02;7.70;;;4.80;;
29238;SDS011;16267;48.194;11.546;2024-03-02T02:26:29;7.85;;;4.55;;
29238;SDS011;16267;48.194;11.546;2024-03-02T02:28:54;9.98;;;5.18;;
29238;SDS011;16267;48.194;11.546;2024-03-02T02:31:20;9.18;;;5.13;;
29238;SDS011;16267;48.194;11.546;2024-03-02T02:33:46;7.68;;;4.60;;
29238;SDS011;16267;48.194;11.546;2024-03-02T02:36:12;8.40;;;4.63;;
29238;SDS011;16267;48.194;11.546;2024-03-02T02:38:38;9.60;;;4.90;;
29238;SDS011;16267;48.194;11.546;2024-03-02T02:41:09;17.30;;;5.00;;
29238;SDS011;16267;48.194;11.546;2024-03-02T02:43:35;9.35;;;4.57;;
29238;SDS011;16267;48.194;11.546;2024-03-02T02:46:00;10.18;;;4.95;;
29238;SDS011;16267;48.194;11.546;2024-03-02T02:48:26;6.93;;;4.50;;
29238;SDS011;16267;48.194;11.546;2024-03-02T02:50:52;7.60;;;4.75;;
29238;SDS011;16267;48.194;11.546;2024-03-02T02:53:18;8.48;;;4.82;;
29238;SDS011;16267;48.194;11.546;2024-03-02T02:55:44;10.05;;;4.50;;
29238;SDS011;16267;48.194;11.546;2024-03-02T02:58:10;9.07;;;4.85;;
29238;SDS011;16267;48.194;11.546;2024-03-02T03:00:35;9.02;;;4.85;;
29238;SDS011;16267;48.194;11.546;2024-03-02T03:03:01;7.32;;;4.53;;
29238;SDS011;16267;48.194;11.546;2024-03-02T03:05:27;10.13;;;5.57;;
29238;SDS011;16267;48.194;11.546;2024-03-02T03:07:53;8.45;;;4.80;;
29238;SDS011;16267;48.194;11.546;2024-03-02T03:10:19;9.40;;;4.97;;
29238;SDS011;16267;48.194;11.546;2024-03-02T03:12:47;8.82;;;4.65;;
29238;SDS011;16267;48.194;11.546;2024-03-02T03:15:13;10.88;;;6.22;;
29238;SDS011;16267;48.194;11.546;2024-03-02T03:17:39;10.00;;;5.18;;
29238;SDS011;16267;48.194;11.546;2024-03-02T03:20:05;9.70;;;5.63;;
29238;SDS011;16267;48.194;11.546;2024-03-02T03:22:34;18.00;;;5.10;;
29238;SDS011;16267;48.194;11.546;2024-03-02T03:25:01;11.85;;;5.57;;
29238;SDS011;16267;48.194;11.546;2024-03-02T03:27:28;10.15;;;5.38;;
29238;SDS011;16267;48.194;11.546;2024-03-02T03:29:54;10.50;;;5.07;;
29238;SDS011;16267;48.194;11.546;2024-03-02T03:32:20;9.77;;;4.80;;
29238;SDS011;16267;48.194;11.546;2024-03-02T03:34:46;8.20;;;4.53;;
29238;SDS011;16267;48.194;11.546;2024-03-02T03:37:13;7.93;;;4.50;;
29238;SDS011;16267;48.194;11.546;2024-03-02T03:39:39;8.65;;;4.80;;
29238;SDS011;16267;48.194;11.546;2024-03-02T03:42:05;10.02;;;4.40;;
29238;SDS011;16267;48.194;11.546;2024-03-02T03:44:31;6.72;;;4.22;;
29238;SDS011;16267;48.194;11.546;2024-03-02T03:46:58;6.57;;;4.22;;
29238;SDS011;16267;48.194;11.546;2024-03-02T03:49:25;7.30;;;4.32;;
29238;SDS011;16267;48.194;11.546;2024-03-02T03:51:51;7.85;;;4.70;;
29238;SDS011;16267;48.194;11.546;2024-03-02T03:54:17;9.45;;;4.88;;
29238;SDS011;16267;48.194;11.546;2024-03-02T03:56:42;9.00;;;4.68;;
29238;SDS011;16267;48.194;11.546;2024-03-02T03:59:08;8.93;;;5.05;;
29238;SDS011;16267;48.194;11.546;2024-03-02T04:01:34;8.35;;;5.20;;
29238;SDS011;16267;48.194;11.546;2024-03-02T04:04:00;7.63;;;4.63;;
29238;SDS011;16267;48.194;11.546;2024-03-02T04:06:28;10.73;;;4.95;;
29238;SDS011;16267;48.194;11.546;2024-03-02T04:08:54;10.13;;;5.22;;
29238;SDS011;16267;48.194;11.546;2024-03-02T04:11:20;8.27;;;4.25;;
29238;SDS011;16267;48.194;11.546;2024-03-02T04:13:46;8.80;;;4.28;;
29238;SDS011;16267;48.194;11.546;2024-03-02T04:16:12;8.50;;;4.65;;
29238;SDS011;16267;48.194;11.546;2024-03-02T04:18:38;9.25;;;4.75;;
29238;SDS011;16267;48.194;11.546;2024-03-02T04:21:04;7.55;;;4.35;;
29238;SDS011;16267;48.194;11.546;2024-03-02T04:23:30;7.93;;;4.70;;
29238;SDS011;16267;48.194;11.546;2024-03-02T04:25:56;13.23;;;4.55;;
29238;SDS011;16267;48.194;11.546;2024-03-02T04:28:22;9.02;;;4.65;;
29238;SDS011;16267;48.194;11.546;2024-03-02T04:30:47;9.25;;;4.38;;
29238;SDS011;16267;48.194;11.546;2024-03-02T04:33:13;13.57;;;5.63;;
29238;SDS011;16267;48.194;11.546;2024-03-02T04:35:39;8.23;;;4.47;;
29238;SDS011;16267;48.194;11.546;2024-03-02T04:38:05;8.55;;;4.35;;
29238;SDS011;16267;48.194;11.546;2024-03-02T04:40:30;8.45;;;4.50;;
29238;SDS011;16267;48.194;11.546;2024-03-02T04:42:57;9.73;;;4.78;;
29238;SDS011;16267;48.194;11.546;2024-03-02T04:45:24;7.95;;;4.65;;
29238;SDS011;16267;48.194;11.546;2024-03-02T04:47:49;10.00;;;5.18;;
29238;SDS011;16267;48.194;11.546;2024-03-02T04:50:15;9.73;;;5.00;;
29238;SDS011;16267;48.194;11.546;2024-03-02T04:52:41;10.10;;;4.72;;
29238;SDS011;16267;48.194;11.546;2024-03-02T04:55:07;9.40;;;4.45;;
29238;SDS011;16267;48.194;11.546;2024-03-02T04:57:42;8.70;;;4.75;;
29238;SDS011;16267;48.194;11.546;2024-03-02T05:00:08;10.27;;;5.72;;
29238;SDS011;16267;48.194;11.546;2024-03-02T05:02:35;12.55;;;5.90;;
29238;SDS011;16267;48.194;11.546;2024-03-02T05:05:01;7.85;;;5.07;;
29238;SDS011;16267;48.194;11.546;2024-03-02T05:07:28;8.95;;;5.45;;
29238;SDS011;16267;48.194;11.546;2024-03-02T05:09:53;8.30;;;4.47;;
29238;SDS011;16267;48.194;11.546;2024-03-02T05:12:19;10.25;;;5.22;;
29238;SDS011;16267;48.194;11.546;2024-03-02T05:15:14;13.40;;;5.22;;
29238;SDS011;16267;48.194;11.546;2024-03-02T05:17:40;8.15;;;4.60;;
29238;SDS011;16267;48.194;11.546;2024-03-02T05:20:08;6.47;;;4.25;;
29238;SDS011;16267;48.194;11.546;2024-03-02T05:22:34;9.68;;;5.30;;
29238;SDS011;16267;48.194;11.546;2024-03-02T05:25:04;8.85;;;4.85;;
29238;SDS011;16267;48.194;11.546;2024-03-02T05:27:31;8.23;;;4.90;;
29238;SDS011;16267;48.194;11.546;2024-03-02T05:29:57;8.20;;;4.85;;
29238;SDS011;16267;48.194;11.546;2024-03-02T05:32:24;8.18;;;5.00;;
29238;SDS011;16267;48.194;11.546;2024-03-02T05:34:50;11.50;;;5.75;;
29238;SDS011;16267;48.194;11.546;2024-03-02T05:37:16;10.60;;;5.65;;
29238;SDS011;16267;48.194;11.546;2024-03-02T05:39:42;10.93;;;5.45;;
29238;SDS011;16267;48.194;11.546;2024-03-02T05:42:09;11.02;;;5.30;;
29238;SDS011;16267;48.194;11.546;2024-03-02T05:44:35;10.77;;;5.40;;
29238;SDS011;16267;48.194;11.546;2024-03-02T05:47:02;12.60;;;5.45;;
29238;SDS011;16267;48.194;11.546;2024-03-02T05:49:28;10.40;;;5.30;;
29238;SDS011;16267;48.194;11.546;2024-03-02T05:51:54;10.60;;;5.72;;
29238;SDS011;16267;48.194;11.546;2024-03-02T05:54:20;9.48;;;5.38;;
29238;SDS011;16267;48.194;11.546;2024-03-02T05:56:46;8.88;;;5.47;;
29238;SDS011;16267;48.194;11.546;2024-03-02T05:59:12;11.88;;;6.03;;
29238;SDS011;16267;48.194;11.546;2024-03-02T06:01:47;11.88;;;5.28;;
29238;SDS011;16267;48.194;11.546;2024-03-02T06:04:15;11.02;;;5.50;;
29238;SDS011;16267;48.194;11.546;2024-03-02T06:06:41;10.27;;;5.63;;
29238;SDS011;16267;48.194;11.546;2024-03-02T06:09:08;11.68;;;5.60;;
29238;SDS011;16267;48.194;11.546;2024-03-02T06:11:37;7.53;;;4.40;;
29238;SDS011;16267;48.194;11.546;2024-03-02T06:14:07;12.10;;;6.00;;
29238;SDS011;16267;48.194;11.546;2024-03-02T06:16:34;10.32;;;5.95;;
29238;SDS011;16267;48.194;11.546;2024-03-02T06:19:00;10.93;;;5.68;;
29238;SDS011;16267;48.194;11.546;2024-03-02T06:21:27;10.35;;;5.68;;
29238;SDS011;16267;48.194;11.546;2024-03-02T06:23:53;12.00;;;5.75;;
29238;SDS011;16267;48.194;11.546;2024-03-02T06:26:19;9.98;;;5.35;;
29238;SDS011;16267;48.194;11.546;2024-03-02T06:28:45;12.05;;;5.78;;
29238;SDS011;16267;48.194;11.546;2024-03-02T06:31:11;9.55;;;5.47;;
29238;SDS011;16267;48.194;11.546;2024-03-02T06:33:37;8.73;;;5.30;;
29238;SDS011;16267;48.194;11.546;2024-03-02T06:36:04;11.05;;;6.18;;
29238;SDS011;16267;48.194;11.546;2024-03-02T06:38:30;9.25;;;5.05;;
29238;SDS011;16267;48.194;11.546;2024-03-02T06:40:57;9.10;;;5.03;;
29238;SDS011;16267;48.194;11.546;2024-03-02T06:43:23;12.77;;;7.22;;
29238;SDS011;16267;48.194;11.546;2024-03-02T06:45:49;9.88;;;5.30;;
29238;SDS011;16267;48.194;11.546;2024-03-02T06:48:16;9.55;;;4.75;;
29238;SDS011;16267;48.194;11.546;2024-03-02T06:50:45;10.05;;;5.40;;
29238;SDS011;16267;48.194;11.546;2024-03-02T06:53:12;13.30;;;6.63;;
29238;SDS011;16267;48.194;11.546;2024-03-02T06:55:38;19.98;;;8.32;;
29238;SDS011;16267;48.194;11.546;2024-03-02T06:58:04;15.07;;;7.90;;
29238;SDS011;16267;48.194;11.546;2024-03-02T07:00:30;16.80;;;7.28;;
29238;SDS011;16267;48.194;11.546;2024-03-02T07:02:56;18.92;;;7.72;;
29238;SDS011;16267;48.194;11.546;2024-03-02T07:05:21;14.38;;;7.70;;
29238;SDS011;16267;48.194;11.546;2024-03-02T07:07:47;14.77;;;6.88;;
29238;SDS011;16267;48.194;11.546;2024-03-02T07:10:13;13.27;;;6.70;;
29238;SDS011;16267;48.194;11.546;2024-03-02T07:12:39;12.07;;;6.80;;
29238;SDS011;16267;48.194;11.546;2024-03-02T07:15:05;13.63;;;6.45;;
29238;SDS011;16267;48.194;11.546;2024-03-02T07:17:31;13.90;;;6.93;;
29238;SDS011;16267;48.194;11.546;2024-03-02T07:19:57;17.02;;;7.68;;
29238;SDS011;16267;48.194;11.546;2024-03-02T07:22:23;18.27;;;7.80;;
29238;SDS011;16267;48.194;11.546;2024-03-02T07:24:49;14.95;;;7.45;;
29238;SDS011;16267;48.194;11.546;2024-03-02T07:27:15;15.63;;;8.00;;
29238;SDS011;16267;48.194;11.546;2024-03-02T07:29:42;15.93;;;8.45;;
29238;SDS011;16267;48.194;11.546;2024-03-02T07:32:09;16.95;;;9.07;;
29238;SDS011;16267;48.194;11.546;2024-03-02T07:34:35;12.32;;;7.13;;
29238;SDS011;16267;48.194;11.546;2024-03-02T07:37:02;14.77;;;8.65;;
29238;SDS011;16267;48.194;11.546;2024-03-02T07:39:28;13.52;;;8.10;;
29238;SDS011;16267;48.194;11.546;2024-03-02T07:41:55;15.63;;;8.25;;
29238;SDS011;16267;48.194;11.546;2024-03-02T07:44:21;13.73;;;7.93;;
29238;SDS011;16267;48.194;11.546;2024-03-02T07:46:47;12.43;;;7.00;;
29238;SDS011;16267;48.194;11.546;2024-03-02T07:49:15;16.65;;;8.00;;
29238;SDS011;16267;48.194;11.546;2024-03-02T07:51:41;13.20;;;6.88;;
29238;SDS011;16267;48.194;11.546;2024-03-02T07:54:07;13.68;;;7.25;;
29238;SDS011;16267;48.194;11.546;2024-03-02T07:56:34;12.98;;;7.03;;
29238;SDS011;16267;48.194;11.546;2024-03-02T07:59:03;13.30;;;6.20;;
29238;SDS011;16267;48.194;11.546;2024-03-02T08:01:30;12.88;;;6.90;;
29238;SDS011;16267;48.194;11.546;2024-03-02T08:03:57;15.85;;;6.57;;
29238;SDS011;16267;48.194;11.546;2024-03-02T08:06:24;12.60;;;6.80;;
29238;SDS011;16267;48.194;11.546;2024-03-02T08:08:54;12.93;;;7.07;;
29238;SDS011;16267;48.194;11.546;2024-03-02T08:11:23;12.63;;;5.70;;
29238;SDS011;16267;48.194;11.546;2024-03-02T08:13:49;12.05;;;6.15;;
29238;SDS011;16267;48.194;11.546;2024-03-02T08:16:15;11.10;;;6.80;;
29238;SDS011;16267;48.194;11.546;2024-03-02T08:18:44;13.75;;;6.78;;
29238;SDS011;16267;48.194;11.546;2024-03-02T08:21:12;9.02;;;5.60;;
29238;SDS011;16267;48.194;11.546;2024-03-02T08:23:38;11.25;;;6.43;;
29238;SDS011;16267;48.194;11.546;2024-03-02T08:26:05;13.63;;;6.85;;
29238;SDS011;16267;48.194;11.546;2024-03-02T08:28:32;14.60;;;7.07;;
29238;SDS011;16267;48.194;11.546;2024-03-02T08:30:58;13.57;;;6.25;;
29238;SDS011;16267;48.194;11.546;2024-03-02T08:33:24;15.50;;;7.05;;
29238;SDS011;16267;48.194;11.546;2024-03-02T08:35:49;11.48;;;6.38;;
29238;SDS011;16267;48.194;11.546;2024-03-02T08:38:15;14.18;;;6.60;;
29238;SDS011;16267;48.194;11.546;2024-03-02T08:40:41;11.55;;;5.65;;
29238;SDS011;16267;48.194;11.546;2024-03-02T08:43:07;10.02;;;5.75;;
29238;SDS011;16267;48.194;11.546;2024-03-02T08:45:33;13.85;;;7.07;;
29238;SDS011;16267;48.194;11.546;2024-03-02T08:47:59;11.30;;;6.75;;
29238;SDS011;16267;48.194;11.546;2024-03-02T08:50:25;9.88;;;5.97;;
29238;SDS011;16267;48.194;11.546;2024-03-02T08:52:51;10.30;;;6.20;;
29238;SDS011;16267;48.194;11.546;2024-03-02T08:55:17;9.27;;;6.07;;
29238;SDS011;16267;48.194;11.546;2024-03-02T08:57:43;14.63;;;5.68;;
29238;SDS011;16267;48.194;11.546;2024-03-02T09:00:09;10.43;;;5.30;;
29238;SDS011;16267;48.194;11.546;2024-03-02T09:02:35;13.77;;;5.18;;
29238;SDS011;16267;48.194;11.546;2024-03-02T09:05:01;10.85;;;5.65;;
29238;SDS011;16267;48.194;11.546;2024-03-02T09:07:27;13.48;;;5.68;;
29238;SDS011;16267;48.194;11.546;2024-03-02T09:09:53;10.00;;;6.13;;
29238;SDS011;16267;48.194;11.546;2024-03-02T09:12:19;11.02;;;5.85;;
29238;SDS011;16267;48.194;11.546;2024-03-02T09:14:45;16.30;;;5.22;;
29238;SDS011;16267;48.194;11.546;2024-03-02T09:17:12;8.98;;;5.13;;
29238;SDS011;16267;48.194;11.546;2024-03-02T09:19:38;11.68;;;5.78;;
29238;SDS011;16267;48.194;11.546;2024-03-02T09:22:04;11.23;;;5.97;;
29238;SDS011;16267;48.194;11.546;2024-03-02T09:24:30;10.15;;;6.07;;
29238;SDS011;16267;48.194;11.546;2024-03-02T09:26:58;12.13;;;6.47;;
29238;SDS011;16267;48.194;11.546;2024-03-02T09:29:24;10.90;;;6.07;;
29238;SDS011;16267;48.194;11.546;2024-03-02T09:31:50;11.43;;;5.57;;
29238;SDS011;16267;48.194;11.546;2024-03-02T09:34:16;12.02;;;6.47;;
29238;SDS011;16267;48.194;11.546;2024-03-02T09:36:42;11.55;;;5.70;;
29238;SDS011;16267;48.194;11.546;2024-03-02T09:39:08;13.50;;;6.07;;
29238;SDS011;16267;48.194;11.546;2024-03-02T09:41:36;13.70;;;7.20;;
29238;SDS011;16267;48.194;11.546;2024-03-02T09:44:04;11.02;;;5.75;;
29238;SDS011;16267;48.194;11.546;2024-03-02T09:46:33;11.30;;;5.68;;
29238;SDS011;16267;48.194;11.546;2024-03-02T09:49:00;11.85;;;5.47;;
29238;SDS011;16267;48.194;11.546;2024-03-02T09:51:26;12.50;;;5.97;;
29238;SDS011;16267;48.194;11.546;2024-03-02T09:53:52;10.60;;;5.55;;
29238;SDS011;16267;48.194;11.546;2024-03-02T09:56:19;9.73;;;5.15;;
29238;SDS011;16267;48.194;11.546;2024-03-02T09:58:46;12.55;;;5.65;;
29238;SDS011;16267;48.194;11.546;2024-03-02T10:01:12;9.55;;;4.65;;
29238;SDS011;16267;48.194;11.546;2024-03-02T10:03:38;9.30;;;4.90;;
29238;SDS011;16267;48.194;11.546;2024-03-02T10:06:20;10.60;;;5.87;;
29238;SDS011;16267;48.194;11.546;2024-03-02T10:08:51;10.68;;;5.93;;
29238;SDS011;16267;48.194;11.546;2024-03-02T10:11:28;10.27;;;6.25;;
29238;SDS011;16267;48.194;11.546;2024-03-02T10:14:06;12.65;;;6.20;;
29238;SDS011;16267;48.194;11.546;2024-03-02T10:16:36;11.38;;;5.82;;
29238;SDS011;16267;48.194;11.546;2024-03-02T10:19:20;13.18;;;6.15;;
29238;SDS011;16267;48.194;11.546;2024-03-02T10:21:48;10.88;;;5.88;;
29238;SDS011;16267;48.194;11.546;2024-03-02T10:24:17;9.55;;;5.57;;
29238;SDS011;16267;48.194;11.546;2024-03-02T10:26:44;12.93;;;5.88;;
29238;SDS011;16267;48.194;11.546;2024-03-02T10:29:10;13.00;;;5.78;;
29238;SDS011;16267;48.194;11.546;2024-03-02T10:31:37;15.07;;;6.15;;
29238;SDS011;16267;48.194;11.546;2024-03-02T10:34:05;14.23;;;7.15;;
29238;SDS011;16267;48.194;11.546;2024-03-02T10:36:35;11.10;;;5.32;;
29238;SDS011;16267;48.194;11.546;2024-03-02T10:39:05;14.23;;;6.10;;
29238;SDS011;16267;48.194;11.546;2024-03-02T10:41:36;13.57;;;6.88;;
29238;SDS011;16267;48.194;11.546;2024-03-02T10:44:04;14.23;;;7.43;;
29238;SDS011;16267;48.194;11.546;2024-03-02T10:46:32;11.98;;;6.57;;
29238;SDS011;16267;48.194;11.546;2024-03-02T10:49:00;14.43;;;7.03;;
29238;SDS011;16267;48.194;11.546;2024-03-02T10:51:28;13.40;;;6.78;;
29238;SDS011;16267;48.194;11.546;2024-03-02T10:53:58;12.93;;;7.25;;
29238;SDS011;16267;48.194;11.546;2024-03-02T10:59:19;15.50;;;7.60;;
29238;SDS011;16267;48.194;11.546;2024-03-02T11:02:02;17.88;;;6.60;;
29238;SDS011;16267;48.194;11.546;2024-03-02T11:04:32;14.45;;;6.40;;
29238;SDS011;16267;48.194;11.546;2024-03-02T11:07:01;13.80;;;7.75;;
29238;SDS011;16267;48.194;11.546;2024-03-02T11:09:35;16.53;;;7.47;;
29238;SDS011;16267;48.194;11.546;2024-03-02T11:12:13;10.57;;;5.95;;
29238;SDS011;16267;48.194;11.546;2024-03-02T11:14:47;13.63;;;6.53;;
29238;SDS011;16267;48.194;11.546;2024-03-02T11:17:16;11.93;;;6.15;;
29238;SDS011;16267;48.194;11.546;2024-03-02T11:19:43;13.35;;;7.45;;
29238;SDS011;16267;48.194;11.546;2024-03-02T11:22:10;12.25;;;6.53;;
29238;SDS011;16267;48.194;11.546;2024-03-02T11:24:37;13.27;;;7.15;;
29238;SDS011;16267;48.194;11.546;2024-03-02T11:27:03;14.18;;;6.75;;
29238;SDS011;16267;48.194;11.546;2024-03-02T11:32:13;13.25;;;6.95;;
29238;SDS011;16267;48.194;11.546;2024-03-02T11:34:42;16.20;;;7.13;;
29238;SDS011;16267;48.194;11.546;2024-03-02T11:37:17;15.13;;;7.13;;
29238;SDS011;16267;48.194;11.546;2024-03-02T11:39:51;15.02;;;7.25;;
29238;SDS011;16267;48.194;11.546;2024-03-02T11:42:17;12.02;;;6.43;;
29238;SDS011;16267;48.194;11.546;2024-03-02T11:44:47;15.25;;;8.20;;
29238;SDS011;16267;48.194;11.546;2024-03-02T11:47:16;14.15;;;6.95;;
29238;SDS011;16267;48.194;11.546;2024-03-02T11:49:48;14.00;;;7.13;;
29238;SDS011;16267;48.194;11.546;2024-03-02T11:52:16;13.52;;;7.13;;
29238;SDS011;16267;48.194;11.546;2024-03-02T11:54:43;13.55;;;6.15;;
29238;SDS011;16267;48.194;11.546;2024-03-02T11:57:15;13.00;;;6.65;;
29238;SDS011;16267;48.194;11.546;2024-03-02T11:59:43;13.15;;;6.80;;
29238;SDS011;16267;48.194;11.546;2024-03-02T12:02:15;15.10;;;7.47;;
29238;SDS011;16267;48.194;11.546;2024-03-02T12:04:43;13.23;;;6.95;;
29238;SDS011;16267;48.194;11.546;2024-03-02T12:07:10;12.70;;;6.57;;
29238;SDS011;16267;48.194;11.546;2024-03-02T12:09:37;15.13;;;7.22;;
29238;SDS011;16267;48.194;11.546;2024-03-02T12:12:09;14.38;;;6.65;;
29238;SDS011;16267;48.194;11.546;2024-03-02T12:14:36;17.42;;;7.68;;
29238;SDS011;16267;48.194;11.546;2024-03-02T12:17:03;14.63;;;7.25;;
29238;SDS011;16267;48.194;11.546;2024-03-02T12:19:31;14.80;;;7.25;;
29238;SDS011;16267;48.194;11.546;2024-03-02T12:21:58;13.38;;;6.32;;
29238;SDS011;16267;48.194;11.546;2024-03-02T12:24:29;16.67;;;7.35;;
29238;SDS011;16267;48.194;11.546;2024-03-02T12:26:55;14.40;;;6.03;;
29238;SDS011;16267;48.194;11.546;2024-03-02T12:29:22;12.00;;;6.05;;
29238;SDS011;16267;48.194;11.546;2024-03-02T12:31:49;12.23;;;7.22;;
29238;SDS011;16267;48.194;11.546;2024-03-02T12:34:17;10.70;;;5.93;;
29238;SDS011;16267;48.194;11.546;2024-03-02T12:36:44;12.32;;;6.82;;
29238;SDS011;16267;48.194;11.546;2024-03-02T12:39:17;13.70;;;6.50;;
29238;SDS011;16267;48.194;11.546;2024-03-02T12:41:48;14.27;;;7.47;;
29238;SDS011;16267;48.194;11.546;2024-03-02T12:44:15;12.75;;;6.38;;
29238;SDS011;16267;48.194;11.546;2024-03-02T12:46:46;11.95;;;6.55;;
29238;SDS011;16267;48.194;11.546;2024-03-02T12:49:13;13.77;;;6.63;;
29238;SDS011;16267;48.194;11.546;2024-03-02T12:54:16;14.10;;;7.32;;
29238;SDS011;16267;48.194;11.546;2024-03-02T12:56:42;14.85;;;6.88;;
29238;SDS011;16267;48.194;11.546;2024-03-02T12:59:18;11.77;;;6.30;;
29238;SDS011;16267;48.194;11.546;2024-03-02T13:01:55;10.90;;;6.05;;
29238;SDS011;16267;48.194;11.546;2024-03-02T13:06:54;14.82;;;6.43;;
29238;SDS011;16267;48.194;11.546;2024-03-02T13:09:23;14.00;;;6.00;;
29238;SDS011;16267;48.194;11.546;2024-03-02T13:11:49;12.25;;;6.50;;
29238;SDS011;16267;48.194;11.546;2024-03-02T13:14:15;17.27;;;7.78;;
29238;SDS011;16267;48.194;11.546;2024-03-02T13:16:41;14.80;;;7.55;;
29238;SDS011;16267;48.194;11.546;2024-03-02T13:19:08;14.85;;;8.00;;
29238;SDS011;16267;48.194;11.546;2024-03-02T13:21:35;16.67;;;8.30;;
29238;SDS011;16267;48.194;11.546;2024-03-02T13:24:01;17.10;;;8.35;;
29238;SDS011;16267;48.194;11.546;2024-03-02T13:26:28;12.25;;;6.53;;
29238;SDS011;16267;48.194;11.546;2024-03-02T13:28:54;13.85;;;6.57;;
29238;SDS011;16267;48.194;11.546;2024-03-02T13:31:19;15.48;;;7.18;;
29238;SDS011;16267;48.194;11.546;2024-03-02T13:33:46;13.52;;;5.78;;
29238;SDS011;16267;48.194;11.546;2024-03-02T13:36:11;11.45;;;5.20;;
29238;SDS011;16267;48.194;11.546;2024-03-02T13:38:37;13.55;;;6.53;;
29238;SDS011;16267;48.194;11.546;2024-03-02T13:41:03;12.48;;;7.10;;
29238;SDS011;16267;48.194;11.546;2024-03-02T13:43:29;13.73;;;6.65;;
29238;SDS011;16267;48.194;11.546;2024-03-02T13:45:57;14.32;;;6.60;;
29238;SDS011;16267;48.194;11.546;2024-03-02T13:48:24;13.23;;;7.25;;
29238;SDS011;16267;48.194;11.546;2024-03-02T13:50:51;15.52;;;7.57;;
29238;SDS011;16267;48.194;11.546;2024-03-02T13:53:20;15.80;;;7.60;;
29238;SDS011;16267;48.194;11.546;2024-03-02T13:55:46;14.38;;;7.65;;
29238;SDS011;16267;48.194;11.546;2024-03-02T13:58:11;15.68;;;7.18;;
29238;SDS011;16267;48.194;11.546;2024-03-02T14:00:38;17.88;;;6.95;;
29238;SDS011;16267;48.194;11.546;2024-03-02T14:03:07;11.38;;;5.85;;
29238;SDS011;16267;48.194;11.546;2024-03-02T14:05:32;12.45;;;6.90;;
29238;SDS011;16267;48.194;11.546;2024-03-02T14:07:59;10.50;;;5.15;;
29238;SDS011;16267;48.194;11.546;2024-03-02T14:10:25;11.20;;;4.75;;
29238;SDS011;16267;48.194;11.546;2024-03-02T14:12:52;11.35;;;4.72;;
29238;SDS011;16267;48.194;11.546;2024-03-02T14:15:19;10.52;;;4.20;;
29238;SDS011;16267;48.194;11.546;2024-03-02T14:17:45;9.52;;;4.45;;
29238;SDS011;16267;48.194;11.546;2024-03-02T14:20:10;9.88;;;4.35;;
29238;SDS011;16267;48.194;11.546;2024-03-02T14:22:38;7.90;;;4.30;;
29238;SDS011;16267;48.194;11.546;2024-03-02T14:25:04;8.73;;;4.65;;
29238;SDS011;16267;48.194;11.546;2024-03-02T14:27:31;9.40;;;4.85;;
29238;SDS011;16267;48.194;11.546;2024-03-02T14:29:57;9.48;;;4.32;;
29238;SDS011;16267;48.194;11.546;2024-03-02T14:32:23;10.13;;;4.72;;
29238;SDS011;16267;48.194;11.546;2024-03-02T14:34:49;10.93;;;5.70;;
29238;SDS011;16267;48.194;11.546;2024-03-02T14:37:14;10.93;;;4.97;;
29238;SDS011;16267;48.194;11.546;2024-03-02T14:39:40;11.65;;;5.30;;